This is the latest recevied weather packets stored in our database for station/object KC0CAU. If no packets are shown the sender has not sent any weather packets the latest 10 day(s).
| Time | Temp. | Humidity | Pressure | Rain* | Wind** | Luminosity | Snow |
|---|---|---|---|---|---|---|---|
| 1778274948 | 20° C | 32% | 1007.7 hPa | 0 mm | - | - | - |
| 1778274062 | 20.56° C | 32% | 1007.9 hPa | 0 mm | - | - | - |
| 1778273144 | 19.44° C | 33% | 1008.1 hPa | 0 mm | - | - | - |
| 1778272245 | 19.44° C | 34% | 1008.4 hPa | 0 mm | - | - | - |
| 1778271340 | 20° C | 34% | 1008.4 hPa | 0 mm | - | - | - |
| 1778270446 | 20° C | 33% | 1008.7 hPa | 0 mm | - | - | - |
| 1778269545 | 19.44° C | 33% | 1008.8 hPa | 0 mm | - | - | - |
| 1778268637 | 18.89° C | 35% | 1008.9 hPa | 0 mm | - | - | - |
| 1778267734 | 19.44° C | 34% | 1009.1 hPa | 0 mm | - | - | - |
| 1778266848 | 19.44° C | 34% | 1009.2 hPa | 0 mm | - | - | - |
| 1778265953 | 18.89° C | 35% | 1009.1 hPa | 0 mm | - | - | - |
| 1778265032 | 18.89° C | 33% | 1009.7 hPa | 0 mm | - | - | - |
| 1778264144 | 18.33° C | 34% | 1009.6 hPa | 0 mm | - | - | - |
| 1778263232 | 18.33° C | 35% | 1009.6 hPa | 0 mm | - | - | - |
| 1778262327 | 18.33° C | 34% | 1009.7 hPa | 0 mm | - | - | - |
| 1778261427 | 17.78° C | 35% | 1009.7 hPa | 0 mm | - | - | - |
| 1778260524 | 17.78° C | 35% | 1010 hPa | 0 mm | - | - | - |
| 1778259631 | 17.22° C | 35% | 1010 hPa | 0 mm | - | - | - |
| 1778258720 | 17.22° C | 38% | 1009.9 hPa | 0 mm | - | - | - |
| 1778257818 | 16.67° C | 37% | 1010 hPa | 0 mm | - | - | - |
| 1778256918 | 16.67° C | 39% | 1010 hPa | 0 mm | - | - | - |
| 1778256017 | 16.11° C | 39% | 1010 hPa | 0 mm | - | - | - |
| 1778255113 | 15.56° C | 40% | 1009.9 hPa | 0 mm | - | - | - |
| 1778254212 | 15.56° C | 40% | 1009.9 hPa | 0 mm | - | - | - |
| 1778253312 | 15° C | 39% | 1009.9 hPa | 0 mm | - | - | - |
* Rain latest hour (hover to see other rain measurements)
** Current wind speed in m/s (hover to see current wind gust speed)